Time;durP1;ratioP1;P1;durP2;ratioP2;P2;SDS_P1;SDS_P2;PMS_P1;PMS_P2;Temp;Humidity;BMP_temperature;BMP_pressure;BME280_temperature;BME280_humidity;BME280_pressure;Samples;Min_cycle;Max_cycle;Signal;HPM_P1;HPM_P2
2021/12/23 00:01:16;;;;;;;33.95;16.10;;;;;;;;;;5081182;28;20086;-73
2021/12/23 00:03:42;;;;;;;34.25;16.83;;;;;;;;;;5114811;28;20487;-73
2021/12/23 00:06:08;;;;;;;30.70;16.33;;;;;;;;;;5113596;28;20505;-73
2021/12/23 00:08:34;;;;;;;31.77;16.52;;;;;;;;;;5078115;28;20044;-73
2021/12/23 00:11:00;;;;;;;31.25;16.88;;;;;;;;;;5094452;28;20043;-73
2021/12/23 00:13:27;;;;;;;31.80;15.25;;;;;;;;;;5112910;28;20118;-74
2021/12/23 00:23:49;;;;;;;27.27;15.77;;;;;;;;;;5094206;28;20052;-74
2021/12/23 00:26:15;;;;;;;29.73;15.98;;;;;;;;;;5095590;28;20051;-74
2021/12/23 00:28:42;;;;;;;26.63;15.65;;;;;;;;;;5094993;28;20449;-74
2021/12/23 00:31:08;;;;;;;30.48;16.25;;;;;;;;;;5094690;28;20070;-74
2021/12/23 00:33:36;;;;;;;29.45;16.38;;;0.30;99.90;;;;;;5095447;28;20096;-74
2021/12/23 00:36:04;;;;;;;27.35;15.82;;;0.10;99.90;;;;;;5097796;28;20382;-74
2021/12/23 00:38:35;;;;;;;31.10;15.43;;;0.30;99.90;;;;;;5097524;28;20056;-74
2021/12/23 00:41:03;;;;;;;32.95;16.33;;;;;;;;;;5093947;28;20048;-74
2021/12/23 00:43:30;;;;;;;31.33;15.98;;;0.20;99.90;;;;;;5110163;28;20118;-74
2021/12/23 00:45:56;;;;;;;30.45;15.10;;;;;;;;;;5114578;28;20082;-74
2021/12/23 00:48:22;;;;;;;33.40;16.60;;;;;;;;;;5087674;28;20067;-74
2021/12/23 00:50:48;;;;;;;34.50;16.50;;;;;;;;;;5093750;28;20040;-74
2021/12/23 00:53:19;;;;;;;26.98;15.52;;;;;;;;;;5106667;28;20051;-74
2021/12/23 00:55:47;;;;;;;29.75;15.73;;;0.30;99.90;;;;;;5097875;28;20047;-74
2021/12/23 00:58:13;;;;;;;27.55;15.23;;;;;;;;;;5108287;28;20115;-74
2021/12/23 01:00:39;;;;;;;33.72;17.10;;;;;;;;;;5108456;28;20031;-74
2021/12/23 01:03:06;;;;;;;30.77;15.70;;;;;;;;;;5094030;28;20044;-74
2021/12/23 01:05:32;;;;;;;28.50;15.70;;;;;;;;;;5093869;28;20043;-74
2021/12/23 01:07:58;;;;;;;31.50;16.63;;;;;;;;;;5101804;28;20028;-74
2021/12/23 01:10:25;;;;;;;27.30;16.00;;;0.20;99.90;;;;;;5113983;28;20036;-74
2021/12/23 01:12:58;;;;;;;28.88;15.90;;;0.30;99.90;;;;;;5111094;28;20039;-74
2021/12/23 01:18:05;;;;;;;30.48;15.70;;;0.20;99.90;;;;;;5107705;28;20484;-74
2021/12/23 01:20:32;;;;;;;31.00;15.18;;;;;;;;;;5093302;28;20050;-74
2021/12/23 01:23:07;;;;;;;31.95;15.68;;;0.30;99.90;;;;;;5099330;28;20491;-74
2021/12/23 01:25:35;;;;;;;26.75;14.80;;;0.30;99.90;;;;;;5100421;28;20055;-74
2021/12/23 01:28:01;;;;;;;31.92;15.25;;;;;;;;;;5099227;28;20114;-74
2021/12/23 01:30:28;;;;;;;26.40;15.45;;;;;;;;;;5096712;28;20384;-74
2021/12/23 01:32:56;;;;;;;27.52;15.30;;;;;;;;;;5108680;28;20075;-74
2021/12/23 01:35:22;;;;;;;26.85;15.52;;;0.40;99.90;;;;;;5093498;28;20087;-74
2021/12/23 01:37:48;;;;;;;28.27;14.65;;;;;;;;;;5085489;28;20056;-74
2021/12/23 01:40:15;;;;;;;29.40;16.17;;;;;;;;;;5093226;28;20080;-74
2021/12/23 01:42:42;;;;;;;31.60;15.80;;;;;;;;;;5094405;28;20377;-74
2021/12/23 01:45:14;;;;;;;30.95;16.00;;;0.40;99.90;;;;;;5096033;28;20430;-74
2021/12/23 01:47:41;;;;;;;27.75;15.35;;;;;;;;;;5103250;28;20032;-74
2021/12/23 01:50:07;;;;;;;38.95;15.65;;;;;;;;;;5093218;28;20039;-74
2021/12/23 01:52:34;;;;;;;31.42;15.75;;;;;;;;;;5092993;28;20369;-74
2021/12/23 01:55:01;;;;;;;30.40;15.77;;;;;;;;;;5112175;28;20043;-74
2021/12/23 01:57:31;;;;;;;28.63;15.32;;;0.20;99.90;;;;;;5112446;28;20060;-74
2021/12/23 01:59:58;;;;;;;29.80;15.05;;;0.20;99.90;;;;;;5077127;28;20058;-74
2021/12/23 02:02:24;;;;;;;24.88;15.32;;;;;;;;;;5075868;28;20051;-74
2021/12/23 02:04:50;;;;;;;29.58;15.10;;;;;;;;;;5109301;28;20035;-74
2021/12/23 02:07:17;;;;;;;29.73;15.93;;;;;;;;;;5096049;28;20483;-74
2021/12/23 02:09:43;;;;;;;27.67;15.05;;;;;;;;;;5099252;28;20501;-74
2021/12/23 02:12:10;;;;;;;30.17;15.80;;;0.60;99.90;;;;;;5112887;28;20506;-74
2021/12/23 02:14:36;;;;;;;30.13;16.17;;;;;;;;;;5099313;28;20063;-74
2021/12/23 02:17:02;;;;;;;30.27;15.82;;;0.50;99.90;;;;;;5092619;28;20063;-74
2021/12/23 02:19:28;;;;;;;28.60;16.38;;;;;;;;;;5086516;28;20567;-74
2021/12/23 02:21:54;;;;;;;26.33;15.30;;;;;;;;;;5089951;28;20044;-74
2021/12/23 02:24:20;;;;;;;27.25;15.93;;;;;;;;;;5085267;28;20047;-74
2021/12/23 02:26:46;;;;;;;29.90;16.05;;;;;;;;;;5095834;28;20479;-74
2021/12/23 02:29:12;;;;;;;29.58;15.60;;;;;;;;;;5087515;28;20042;-74
2021/12/23 02:31:38;;;;;;;32.03;16.00;;;;;;;;;;5092470;28;20039;-74
2021/12/23 02:34:04;;;;;;;28.33;15.30;;;;;;;;;;5098354;28;20122;-74
2021/12/23 02:36:30;;;;;;;28.40;16.20;;;;;;;;;;5112856;28;20419;-74
2021/12/23 02:39:00;;;;;;;30.30;15.55;;;0.40;99.90;;;;;;5107433;28;20127;-74
2021/12/23 02:41:26;;;;;;;27.88;14.73;;;;;;;;;;5092129;28;20048;-74
2021/12/23 02:43:52;;;;;;;33.47;16.00;;;;;;;;;;5095910;28;20036;-74
2021/12/23 02:46:19;;;;;;;30.55;16.33;;;;;;;;;;5112421;28;20043;-74
2021/12/23 02:48:46;;;;;;;29.13;16.13;;;0.40;99.90;;;;;;5081793;28;20380;-73
2021/12/23 02:51:15;;;;;;;29.38;15.68;;;0.20;99.90;;;;;;5110802;28;20507;-73
2021/12/23 02:53:44;;;;;;;32.70;15.98;;;0.30;99.90;;;;;;5110688;28;20502;-73
2021/12/23 02:56:15;;;;;;;28.77;14.70;;;0.30;99.90;;;;;;5112317;28;20560;-73
2021/12/23 02:58:42;;;;;;;32.85;15.77;;;;;;;;;;5081271;28;20100;-73
2021/12/23 03:01:09;;;;;;;30.70;16.98;;;0.40;99.90;;;;;;5095374;28;20036;-73
2021/12/23 03:03:35;;;;;;;31.80;15.18;;;;;;;;;;5111327;28;20043;-73
2021/12/23 03:06:01;;;;;;;25.13;15.30;;;0.30;99.90;;;;;;5111205;28;20071;-73
2021/12/23 03:08:34;;;;;;;29.40;15.98;;;0.50;99.90;;;;;;5113827;28;20039;-73
2021/12/23 03:11:00;;;;;;;32.70;16.45;;;;;;;;;;5097745;28;20040;-73
2021/12/23 03:13:26;;;;;;;29.35;15.00;;;;;;;;;;5079151;28;20488;-73
2021/12/23 03:15:52;;;;;;;31.42;15.85;;;;;;;;;;5099577;28;20036;-79
2021/12/23 03:18:18;;;;;;;29.10;15.52;;;;;;;;;;5096179;28;20402;-73
2021/12/23 03:20:44;;;;;;;29.90;15.70;;;;;;;;;;5110200;28;20104;-73
2021/12/23 03:23:10;;;;;;;32.30;16.15;;;;;;;;;;5116178;28;20100;-73
2021/12/23 03:25:36;;;;;;;26.13;15.77;;;;;;;;;;5109714;28;20081;-73
2021/12/23 03:28:02;;;;;;;32.95;16.10;;;0.20;99.90;;;;;;5114404;28;20039;-73
2021/12/23 03:30:28;;;;;;;30.45;16.05;;;;;;;;;;5104195;28;20555;-73
2021/12/23 03:32:54;;;;;;;31.15;16.67;;;;;;;;;;5062126;28;20400;-73
2021/12/23 03:35:21;;;;;;;30.65;17.15;;;;;;;;;;5101126;28;20047;-73
2021/12/23 03:37:47;;;;;;;32.15;17.02;;;;;;;;;;5095146;28;20040;-73
2021/12/23 03:40:13;;;;;;;30.23;16.83;;;;;;;;;;5101925;28;20043;-73
2021/12/23 03:42:39;;;;;;;27.85;15.35;;;0.40;99.90;;;;;;5098714;28;20043;-73
2021/12/23 03:45:07;;;;;;;33.72;16.58;;;0.50;99.90;;;;;;5107778;28;20043;-73
2021/12/23 03:47:34;;;;;;;31.58;16.80;;;;;;;;;;5111299;28;20107;-73
2021/12/23 03:50:00;;;;;;;27.35;16.30;;;;;;;;;;5081892;28;20042;-73
2021/12/23 03:52:26;;;;;;;29.42;15.68;;;;;;;;;;5114132;28;20036;-74
2021/12/23 03:54:52;;;;;;;31.45;17.85;;;;;;;;;;5090080;28;20043;-74
2021/12/23 03:57:18;;;;;;;27.90;15.82;;;;;;;;;;5115548;28;20040;-74
2021/12/23 03:59:44;;;;;;;31.65;16.42;;;;;;;;;;5114010;28;20126;-74
2021/12/23 04:02:10;;;;;;;29.55;15.93;;;;;;;;;;5095115;28;20452;-74
2021/12/23 04:04:36;;;;;;;33.58;17.25;;;;;;;;;;5102463;28;20455;-74
2021/12/23 04:07:03;;;;;;;30.30;16.65;;;;;;;;;;5095007;28;20134;-74
2021/12/23 04:09:29;;;;;;;29.45;16.17;;;;;;;;;;5094804;28;20068;-74
2021/12/23 04:11:55;;;;;;;28.40;15.77;;;;;;;;;;5112417;28;20039;-74
2021/12/23 04:14:21;;;;;;;30.45;16.05;;;;;;;;;;5109158;28;20097;-74
2021/12/23 04:16:47;;;;;;;37.28;17.67;;;;;;;;;;5110209;28;20372;-74
2021/12/23 04:19:13;;;;;;;28.58;16.77;;;;;;;;;;5114248;28;20035;-74
2021/12/23 04:21:40;;;;;;;33.80;17.63;;;0.60;99.90;;;;;;5100870;28;20036;-74
2021/12/23 04:24:06;;;;;;;29.08;16.52;;;0.40;99.90;;;;;;5097294;28;20044;-74
2021/12/23 04:26:32;;;;;;;35.05;16.58;;;;;;;;;;5102355;28;20052;-74
2021/12/23 04:28:58;;;;;;;33.42;17.08;;;;;;;;;;5077542;28;20050;-74
2021/12/23 04:31:24;;;;;;;34.53;16.27;;;;;;;;;;5104153;28;20032;-74
2021/12/23 04:33:51;;;;;;;34.30;16.95;;;;;;;;;;5113794;28;20093;-74
2021/12/23 04:36:18;;;;;;;30.60;16.63;;;0.30;99.90;;;;;;5102076;28;20046;-74
2021/12/23 04:38:45;;;;;;;29.55;16.92;;;0.40;99.90;;;;;;5113809;28;20491;-74
2021/12/23 04:41:12;;;;;;;32.42;16.55;;;0.50;99.90;;;;;;5107483;28;20043;-74
2021/12/23 04:43:38;;;;;;;33.30;17.40;;;;;;;;;;5093876;28;20046;-74
2021/12/23 04:46:05;;;;;;;35.72;17.58;;;;;;;;;;5107969;28;20070;-74
2021/12/23 04:48:31;;;;;;;32.15;17.33;;;;;;;;;;5094196;28;20122;-74
2021/12/23 04:50:58;;;;;;;32.03;16.77;;;0.50;99.90;;;;;;5096805;28;20455;-74
2021/12/23 04:53:24;;;;;;;32.10;18.20;;;;;;;;;;5114571;28;20044;-74
2021/12/23 04:55:50;;;;;;;32.10;17.08;;;;;;;;;;5098248;28;20040;-74
2021/12/23 04:58:16;;;;;;;37.67;17.80;;;;;;;;;;5113973;28;20122;-74
2021/12/23 05:00:47;;;;;;;31.75;18.20;;;0.70;99.90;;;;;;5113723;28;20092;-74
2021/12/23 05:03:13;;;;;;;37.92;18.35;;;;;;;;;;5093835;28;20118;-74
2021/12/23 05:05:39;;;;;;;35.45;17.95;;;;;;;;;;5108447;28;20032;-74
2021/12/23 05:08:06;;;;;;;30.77;17.35;;;;;;;;;;5078100;28;20093;-74
2021/12/23 05:10:32;;;;;;;31.73;17.27;;;;;;;;;;5093516;28;20480;-74
2021/12/23 05:12:59;;;;;;;34.20;17.65;;;0.60;99.90;;;;;;5110526;28;20067;-74
2021/12/23 05:15:26;;;;;;;33.75;18.73;;;;;;;;;;5100464;28;20048;-74
2021/12/23 05:17:52;;;;;;;33.00;18.42;;;;;;;;;;5109202;28;20044;-74
2021/12/23 05:20:19;;;;;;;34.95;18.70;;;0.60;99.90;;;;;;5104378;28;20044;-74
2021/12/23 05:22:45;;;;;;;33.65;18.17;;;;;;;;;;5107475;28;20054;-74
2021/12/23 05:25:11;;;;;;;36.25;18.50;;;;;;;;;;5112921;28;20053;-74
2021/12/23 05:27:38;;;;;;;33.75;18.08;;;0.00;99.90;;;;;;5100328;28;20545;-74
2021/12/23 05:30:08;;;;;;;36.33;18.83;;;0.70;99.90;;;;;;5098249;28;20048;-74
2021/12/23 05:32:34;;;;;;;32.92;18.10;;;;;;;;;;5101292;28;20050;-74
2021/12/23 05:35:00;;;;;;;34.78;18.48;;;;;;;;;;5103257;28;20043;-74
2021/12/23 05:37:26;;;;;;;35.38;18.08;;;;;;;;;;5103189;28;20507;-73
2021/12/23 05:39:52;;;;;;;32.22;18.00;;;;;;;;;;5096636;28;20046;-73
2021/12/23 05:42:18;;;;;;;31.70;17.58;;;;;;;;;;5100888;28;20063;-73
2021/12/23 05:44:44;;;;;;;38.45;19.00;;;;;;;;;;5100803;28;20044;-73
2021/12/23 05:47:10;;;;;;;36.38;19.50;;;;;;;;;;5085661;28;20119;-73
2021/12/23 05:49:36;;;;;;;36.33;18.98;;;;;;;;;;5103399;28;20047;-73
2021/12/23 05:52:03;;;;;;;35.63;18.13;;;;;;;;;;5105664;28;20456;-73
2021/12/23 05:54:29;;;;;;;37.72;19.35;;;;;;;;;;5113417;28;20070;-73
2021/12/23 05:57:01;;;;;;;38.97;20.55;;;;;;;;;;5091930;28;20084;-73
2021/12/23 05:59:27;;;;;;;40.63;19.42;;;;;;;;;;5093927;28;20133;-73
2021/12/23 06:01:53;;;;;;;38.05;18.95;;;;;;;;;;5104182;28;20087;-73
2021/12/23 06:04:19;;;;;;;40.25;19.98;;;;;;;;;;5112426;28;20031;-73
2021/12/23 06:06:45;;;;;;;37.10;18.38;;;;;;;;;;5102813;28;20061;-73
2021/12/23 06:09:11;;;;;;;36.58;19.35;;;;;;;;;;5112974;28;20039;-73
2021/12/23 06:11:38;;;;;;;36.58;18.77;;;;;;;;;;5093730;28;20047;-73
2021/12/23 06:14:04;;;;;;;33.22;17.63;;;;;;;;;;5107959;28;20069;-76
2021/12/23 06:16:30;;;;;;;34.13;19.52;;;;;;;;;;5090204;28;20075;-72
2021/12/23 06:18:56;;;;;;;38.47;20.70;;;;;;;;;;5093373;28;20066;-72
2021/12/23 06:21:26;;;;;;;37.90;18.80;;;;;;;;;;5112840;28;20065;-72
2021/12/23 06:23:53;;;;;;;38.78;17.77;;;;;;;;;;5095676;28;20546;-72
2021/12/23 06:26:19;;;;;;;37.10;19.33;;;;;;;;;;5091968;28;20052;-72
2021/12/23 06:28:45;;;;;;;34.60;18.27;;;;;;;;;;5108063;28;20043;-72
2021/12/23 06:31:11;;;;;;;34.35;18.67;;;;;;;;;;5112417;28;20036;-72
2021/12/23 06:33:37;;;;;;;39.85;19.20;;;;;;;;;;5112530;28;20491;-72
2021/12/23 06:36:03;;;;;;;38.80;19.30;;;;;;;;;;5096019;28;20042;-72
2021/12/23 06:38:29;;;;;;;32.42;18.85;;;0.80;99.90;;;;;;5098483;28;20069;-72
2021/12/23 06:40:55;;;;;;;51.50;20.17;;;;;;;;;;5092120;28;20124;-72
2021/12/23 06:43:21;;;;;;;44.53;19.60;;;;;;;;;;5107121;28;20043;-72
2021/12/23 06:45:48;;;;;;;38.03;20.77;;;;;;;;;;5116744;28;20475;-72
2021/12/23 06:48:14;;;;;;;36.25;20.10;;;;;;;;;;5115486;28;20530;-72
2021/12/23 06:50:40;;;;;;;47.80;20.65;;;;;;;;;;5107975;28;20044;-72
2021/12/23 06:53:06;;;;;;;36.85;19.95;;;;;;;;;;5084965;28;20387;-72
2021/12/23 06:55:32;;;;;;;40.25;19.90;;;;;;;;;;5097144;28;20039;-72
2021/12/23 06:57:58;;;;;;;47.67;20.27;;;;;;;;;;5106411;28;20491;-72
2021/12/23 07:00:27;;;;;;;41.65;18.77;;;0.90;99.90;;;;;;5078899;28;20570;-72
2021/12/23 07:02:54;;;;;;;42.42;20.67;;;;;;;;;;5102165;28;20043;-72
2021/12/23 07:05:21;;;;;;;35.42;19.80;;;;;;;;;;5099478;28;20472;-72
2021/12/23 07:07:56;;;;;;;39.95;20.23;;;;;;;;;;5116239;28;20074;-72
2021/12/23 07:10:27;;;;;;;38.67;20.75;;;0.50;99.90;;;;;;5116200;28;20040;-73
2021/12/23 07:12:54;;;;;;;37.35;19.00;;;0.70;99.90;;;;;;5116090;28;20552;-72
2021/12/23 07:15:21;;;;;;;35.90;19.63;;;;;;;;;;5105797;28;20121;-72
2021/12/23 07:17:47;;;;;;;38.65;20.25;;;;;;;;;;5095987;28;20540;-72
2021/12/23 07:20:13;;;;;;;40.20;20.08;;;;;;;;;;5095995;28;20043;-72
2021/12/23 07:22:39;;;;;;;41.40;20.42;;;;;;;;;;5095521;28;20082;-72
2021/12/23 07:25:05;;;;;;;40.53;20.48;;;;;;;;;;5095350;28;20056;-72
2021/12/23 07:27:32;;;;;;;40.20;20.77;;;;;;;;;;5095499;28;20076;-72
2021/12/23 07:29:58;;;;;;;37.03;20.55;;;;;;;;;;5078824;28;20470;-72
2021/12/23 07:32:24;;;;;;;47.40;21.00;;;;;;;;;;5078662;28;20046;-71
2021/12/23 07:34:50;;;;;;;43.17;22.30;;;;;;;;;;5095031;28;20476;-72
2021/12/23 07:37:16;;;;;;;37.88;20.63;;;;;;;;;;5095384;28;20047;-72
2021/12/23 07:39:42;;;;;;;42.33;21.42;;;;;;;;;;5095556;28;20043;-71
2021/12/23 07:42:14;;;;;;;42.58;22.80;;;;;;;;;;5095149;28;20043;-71
2021/12/23 07:44:40;;;;;;;40.47;21.45;;;;;;;;;;5078404;28;20040;-72
2021/12/23 07:47:07;;;;;;;44.33;22.23;;;;;;;;;;5095275;28;20061;-72
2021/12/23 07:49:33;;;;;;;43.83;22.77;;;;;;;;;;5095250;28;20059;-71
2021/12/23 07:51:59;;;;;;;42.20;21.60;;;;;;;;;;5104719;28;20155;-72
2021/12/23 07:54:25;;;;;;;46.15;21.85;;;1.10;99.90;;;;;;5114241;28;20050;-77
2021/12/23 07:56:51;;;;;;;45.75;22.45;;;;;;;;;;5115293;28;20039;-74
2021/12/23 07:59:18;;;;;;;43.42;22.05;;;;;;;;;;5114180;27;20036;-72
2021/12/23 08:01:44;;;;;;;51.75;24.27;;;;;;;;;;5106219;28;20426;-71
2021/12/23 08:04:10;;;;;;;41.70;22.02;;;;;;;;;;5105472;28;20067;-71
2021/12/23 08:06:35;;;;;;;42.30;22.52;;;1.00;99.90;;;;;;5105260;28;20047;-72
2021/12/23 08:09:01;;;;;;;48.33;24.27;;;;;;;;;;5106103;28;20075;-72
2021/12/23 08:11:28;;;;;;;47.13;23.48;;;;;;;;;;5086831;28;20039;-72
2021/12/23 08:13:54;;;;;;;48.80;23.27;;;;;;;;;;5115108;28;20039;-74
2021/12/23 08:16:20;;;;;;;49.35;24.33;;;;;;;;;;5100764;28;20044;-71
2021/12/23 08:18:46;;;;;;;48.10;24.15;;;;;;;;;;5094456;28;20101;-73
2021/12/23 08:21:12;;;;;;;49.30;25.58;;;;;;;;;;5077603;28;20123;-76
2021/12/23 08:23:38;;;;;;;49.85;24.90;;;;;;;;;;5094403;28;20044;-72
2021/12/23 08:26:11;;;;;;;54.03;26.98;;;;;;;;;;5094209;28;20105;-73
2021/12/23 08:28:37;;;;;;;;;;;0.90;99.90;;;;;;5092630;28;20040;-73
2021/12/23 08:31:03;;;;;;;59.72;27.02;;;;;;;;;;5114625;28;19916;-72
2021/12/23 08:33:29;;;;;;;56.72;28.20;;;;;;;;;;5113640;28;20031;-72
2021/12/23 08:35:55;;;;;;;60.17;28.58;;;;;;;;;;5114183;28;20122;-72
2021/12/23 08:38:21;;;;;;;56.17;28.17;;;;;;;;;;5080813;28;20035;-72
2021/12/23 08:40:47;;;;;;;57.95;28.73;;;;;;;;;;5114593;28;20051;-72
2021/12/23 08:43:13;;;;;;;59.53;28.83;;;;;;;;;;5114475;28;20040;-72
2021/12/23 08:45:40;;;;;;;58.50;28.98;;;;;;;;;;5114619;28;20036;-72
2021/12/23 08:48:06;;;;;;;60.40;27.50;;;;;;;;;;5097448;28;20051;-72
2021/12/23 08:50:32;;;;;;;60.50;30.02;;;;;;;;;;5114534;28;20044;-72
2021/12/23 08:52:59;;;;;;;56.47;27.67;;;1.10;99.90;;;;;;5114196;28;20036;-72
2021/12/23 08:55:27;;;;;;;59.30;28.63;;;;;;;;;;5097147;28;20039;-72
2021/12/23 08:57:53;;;;;;;57.38;27.83;;;;;;;;;;5114168;28;20093;-72
2021/12/23 09:00:20;;;;;;;63.50;28.58;;;;;;;;;;5104781;28;20044;-72
2021/12/23 09:02:48;;;;;;;57.90;28.17;;;;;;;;;;5103857;28;20055;-72
2021/12/23 09:05:16;;;;;;;60.38;27.83;;;0.90;99.90;;;;;;5103448;28;20085;-73
2021/12/23 09:07:43;;;;;;;63.50;27.58;;;;;;;;;;5102110;28;20027;-72
2021/12/23 09:10:09;;;;;;;58.88;27.70;;;;;;;;;;5102158;28;20032;-72
2021/12/23 09:12:35;;;;;;;62.10;29.08;;;;;;;;;;5103987;28;20044;-73
2021/12/23 09:15:01;;;;;;;60.55;29.60;;;;;;;;;;5086710;28;20400;-72
2021/12/23 09:17:27;;;;;;;59.15;29.40;;;;;;;;;;5105531;27;20483;-72
2021/12/23 09:19:53;;;;;;;63.55;29.77;;;;;;;;;;5100351;28;20041;-72
2021/12/23 09:22:19;;;;;;;61.42;29.98;;;;;;;;;;5095806;28;20039;-72
2021/12/23 09:24:47;;;;;;;70.80;31.98;;;;;;;;;;5094755;28;20090;-73
2021/12/23 09:27:27;;;;;;;77.38;33.20;;;;;;;;;;5096081;28;20048;-73
2021/12/23 09:35:28;;;;;;;89.43;34.95;;;1.10;99.90;;;;;;5053290;28;20037;-73
2021/12/23 09:37:54;;;;;;;92.90;36.90;;;;;;;;;;5053421;28;20745;-73
2021/12/23 09:40:23;;;;;;;96.57;37.05;;;;;;;;;;5075951;28;20044;-73
2021/12/23 09:42:49;;;;;;;89.53;36.28;;;;;;;;;;5101428;28;20376;-72
2021/12/23 09:45:18;;;;;;;81.32;36.10;;;;;;;;;;5101122;28;20491;-72
2021/12/23 09:47:47;;;;;;;78.25;33.30;;;1.10;99.90;;;;;;5095406;28;20052;-72
2021/12/23 09:50:16;;;;;;;77.78;32.72;;;1.30;99.90;;;;;;5079477;28;20036;-73
2021/12/23 09:52:44;;;;;;;82.85;34.25;;;;;;;;;;5097863;28;20097;-73
2021/12/23 09:55:13;;;;;;;85.03;33.55;;;1.10;99.90;;;;;;5082825;28;20093;-73
2021/12/23 09:57:39;;;;;;;83.50;32.20;;;;;;;;;;5102150;28;20487;-72
2021/12/23 10:00:09;;;;;;;77.60;34.50;;;1.20;99.90;;;;;;5101870;28;20454;-72
2021/12/23 10:02:40;;;;;;;76.63;33.92;;;;;;;;;;5103771;28;20051;-74
2021/12/23 10:05:08;;;;;;;82.57;33.90;;;1.70;99.90;;;;;;5101623;28;20038;-73
2021/12/23 10:07:34;;;;;;;86.00;34.05;;;;;;;;;;5081287;28;20071;-73
2021/12/23 10:10:08;;;;;;;81.53;33.78;;;;;;;;;;5095664;28;20122;-73
2021/12/23 10:32:29;;;;;;;90.45;34.78;;;1.20;99.90;;;;;;5109583;28;20467;-70
2021/12/23 10:37:23;;;;;;;94.40;36.35;;;1.00;99.90;;;;;;5093154;28;20079;-71
2021/12/23 10:39:49;;;;;;;90.72;35.40;;;;;;;;;;5095316;28;20054;-70
2021/12/23 10:42:22;;;;;;;92.80;36.92;;;1.20;99.90;;;;;;5094731;28;20491;-69
2021/12/23 10:45:11;;;;;;;98.55;35.55;;;1.00;99.90;;;;;;5094618;28;20396;-70
2021/12/23 10:50:28;;;;;;;108.40;39.65;;;1.00;99.90;;;;;;5098399;28;20136;-69
2021/12/23 10:53:02;;;;;;;102.47;37.83;;;1.20;99.90;;;;;;5110701;28;20491;-70
2021/12/23 10:58:15;;;;;;;103.22;37.78;;;;;;;;;;5108546;28;20457;-70
2021/12/23 11:00:49;;;;;;;99.53;37.35;;;1.30;99.90;;;;;;5103442;28;20036;-70
2021/12/23 11:06:11;;;;;;;98.22;36.42;;;0.80;99.90;;;;;;5096608;28;20044;-69
2021/12/23 11:11:31;;;;;;;102.82;36.28;;;1.20;99.90;;;;;;5096755;28;20146;-70
2021/12/23 11:37:05;;;;;;;100.13;36.67;;;1.30;99.90;;;;;;5102895;28;20388;-72
2021/12/23 11:39:32;;;;;;;97.15;35.13;;;;;;;;;;5095125;28;20047;-72
2021/12/23 11:42:15;;;;;;;101.22;36.75;;;1.30;99.90;;;;;;5111121;28;20047;-71
2021/12/23 11:44:42;;;;;;;97.35;37.72;;;1.40;99.90;;;;;;5115576;28;20047;-71
2021/12/23 11:47:12;;;;;;;103.78;37.30;;;;;;;;;;5098273;28;20487;-69
2021/12/23 11:49:40;;;;;;;103.38;38.15;;;;;;;;;;5093197;28;20111;-69
2021/12/23 11:52:06;;;;;;;94.95;36.28;;;1.90;99.90;;;;;;5099028;28;20032;-69
2021/12/23 11:54:40;;;;;;;97.28;36.55;;;1.80;99.90;;;;;;5095001;28;20048;-70
2021/12/23 11:57:18;;;;;;;106.20;36.85;;;1.70;99.90;;;;;;5110573;28;20039;-69
2021/12/23 12:00:16;;;;;;;103.40;39.05;;;1.60;99.90;;;;;;5113441;28;20126;-70
2021/12/23 12:02:42;;;;;;;105.32;37.03;;;;;;;;;;5095133;28;20130;-69
2021/12/23 12:05:15;;;;;;;104.22;38.08;;;1.60;99.90;;;;;;5094625;28;20044;-69
2021/12/23 12:07:42;;;;;;;94.93;38.80;;;;;;;;;;5111745;28;20047;-70
2021/12/23 12:10:22;;;;;;;100.50;37.97;;;1.50;99.90;;;;;;5114684;28;20091;-69
2021/12/23 12:13:03;;;;;;;91.70;36.47;;;1.60;99.90;;;;;;5110338;28;20169;-67
2021/12/23 12:15:38;;;;;;;100.47;37.30;;;1.60;99.90;;;;;;5111701;28;20040;-67
2021/12/23 12:18:12;;;;;;;96.70;37.83;;;;;;;;;;5094648;28;20098;-68
2021/12/23 12:20:47;;;;;;;102.88;37.17;;;;;;;;;;5094297;28;20032;-68
2021/12/23 12:23:22;;;;;;;101.93;38.60;;;;;;;;;;5092922;28;20100;-69
2021/12/23 12:25:53;;;;;;;100.05;36.30;;;1.80;99.90;;;;;;5095254;28;20113;-69
2021/12/23 12:28:31;;;;;;;100.25;37.53;;;1.40;99.90;;;;;;5076507;28;20047;-70
2021/12/23 12:30:58;;;;;;;103.35;37.72;;;;;;;;;;5102928;28;20036;-71
2021/12/23 12:33:24;;;;;;;100.90;37.13;;;;;;;;;;5094482;28;20931;-71
2021/12/23 12:35:50;;;;;;;95.60;37.83;;;;;;;;;;5095490;28;20043;-71
2021/12/23 12:38:22;;;;;;;99.03;37.47;;;1.70;99.90;;;;;;5094936;28;20036;-71
2021/12/23 12:41:01;;;;;;;102.68;38.38;;;1.90;99.90;;;;;;5101363;28;20043;-71
2021/12/23 12:43:33;;;;;;;95.53;36.47;;;1.80;99.90;;;;;;5077616;28;20068;-71
2021/12/23 12:45:59;;;;;;;95.82;36.83;;;;;;;;;;5093852;28;20040;-71
2021/12/23 12:48:45;;;;;;;92.43;35.15;;;;;;;;;;5096464;28;20165;-71
2021/12/23 12:51:21;;;;;;;108.32;38.35;;;2.10;99.90;;;;;;5103410;28;20062;-71
2021/12/23 12:53:56;;;;;;;104.30;36.72;;;1.80;99.90;;;;;;5094251;28;20468;-71
2021/12/23 12:56:28;;;;;;;98.65;37.03;;;2.00;99.90;;;;;;5097675;28;20031;-71
2021/12/23 12:58:55;;;;;;;109.03;36.70;;;1.80;99.90;;;;;;5076245;28;20472;-71
2021/12/23 13:01:38;;;;;;;111.00;38.75;;;1.90;99.90;;;;;;5103658;28;20487;-71
2021/12/23 13:04:05;;;;;;;;;;;;;;;;;;5077244;28;20048;-71
2021/12/23 13:06:41;;;;;;;99.13;35.90;;;1.80;99.90;;;;;;5100686;28;20451;-71
2021/12/23 13:09:12;;;;;;;101.10;36.33;;;1.90;99.90;;;;;;5093637;28;20085;-71
2021/12/23 13:11:45;;;;;;;98.93;36.55;;;2.00;99.90;;;;;;5106087;28;20036;-72
2021/12/23 13:14:20;;;;;;;99.60;36.15;;;1.90;99.90;;;;;;5093452;28;20119;-71
2021/12/23 13:16:54;;;;;;;105.88;36.42;;;2.30;99.90;;;;;;5093767;28;20890;-72
2021/12/23 13:19:34;;;;;;;109.57;37.40;;;2.40;99.90;;;;;;5076612;28;20048;-72
2021/12/23 13:22:04;;;;;;;96.95;35.97;;;1.80;99.90;;;;;;5093499;28;20487;-72
2021/12/23 13:24:31;;;;;;;100.88;39.67;;;;;;;;;;5093096;28;20048;-72
2021/12/23 13:26:59;;;;;;;106.25;37.15;;;1.60;99.90;;;;;;5093029;28;20095;-72
2021/12/23 13:29:28;;;;;;;97.80;36.50;;;2.10;99.90;;;;;;5093502;28;20059;-72
2021/12/23 13:31:57;;;;;;;96.88;35.15;;;1.40;99.90;;;;;;5113632;28;20518;-72
2021/12/23 13:34:26;;;;;;;105.35;36.13;;;1.90;99.90;;;;;;5113445;28;20040;-72
2021/12/23 13:36:55;;;;;;;97.72;35.25;;;2.10;99.90;;;;;;5113547;28;20074;-72
2021/12/23 13:39:24;;;;;;;104.38;37.15;;;2.20;99.90;;;;;;5096782;28;20031;-72
2021/12/23 13:41:58;;;;;;;98.15;34.80;;;1.60;99.90;;;;;;5113568;28;20101;-72
2021/12/23 13:44:31;;;;;;;91.82;34.95;;;2.00;99.90;;;;;;5113338;28;20054;-72
2021/12/23 13:46:59;;;;;;;102.93;37.10;;;1.90;99.90;;;;;;5113273;28;20051;-72
2021/12/23 13:49:47;;;;;;;103.18;37.67;;;2.10;99.90;;;;;;5113259;28;20039;-72
2021/12/23 13:52:27;;;;;;;112.30;38.22;;;1.90;99.90;;;;;;5113860;28;20439;-72
2021/12/23 13:55:00;;;;;;;108.10;36.60;;;2.10;99.90;;;;;;5096052;28;20091;-72
2021/12/23 13:57:28;;;;;;;94.15;36.53;;;1.90;99.90;;;;;;5113140;28;20120;-72
2021/12/23 13:59:54;;;;;;;107.10;37.58;;;;;;;;;;5095589;28;20032;-72
2021/12/23 14:02:25;;;;;;;102.75;36.78;;;2.20;99.90;;;;;;5112173;28;20040;-72
2021/12/23 14:05:01;;;;;;;112.90;37.97;;;2.20;99.90;;;;;;5092466;28;20038;-72
2021/12/23 14:07:27;;;;;;;112.50;37.38;;;;;;;;;;5108782;28;20077;-72
2021/12/23 14:09:53;;;;;;;108.72;37.85;;;;;;;;;;5075489;28;20032;-70
2021/12/23 14:12:39;;;;;;;106.57;36.33;;;2.20;99.90;;;;;;5110227;28;20031;-70
2021/12/23 14:15:07;;;;;;;108.45;35.50;;;2.60;99.90;;;;;;5112804;28;20043;-73
2021/12/23 14:17:40;;;;;;;119.72;40.33;;;;;;;;;;5092525;28;20073;-70
2021/12/23 14:23:14;;;;;;;122.10;39.50;;;2.00;99.90;;;;;;5092397;28;20051;-69
2021/12/23 14:25:44;;;;;;;109.22;37.85;;;;;;;;;;5094335;28;20055;-69
2021/12/23 14:28:13;;;;;;;110.68;37.20;;;2.20;99.90;;;;;;5112261;28;20035;-69
2021/12/23 14:31:04;;;;;;;108.20;37.88;;;2.20;99.90;;;;;;5083922;28;20044;-69
2021/12/23 14:33:40;;;;;;;112.95;36.85;;;2.10;99.90;;;;;;5104966;28;20048;-70
2021/12/23 14:36:07;;;;;;;112.13;38.30;;;;;;;;;;5097270;28;20035;-70
2021/12/23 14:38:37;;;;;;;115.53;38.65;;;2.10;99.90;;;;;;5110157;28;20047;-70
2021/12/23 14:41:08;;;;;;;110.47;37.40;;;2.30;99.90;;;;;;5107674;28;20040;-69
2021/12/23 14:43:57;;;;;;;114.88;37.13;;;2.20;99.90;;;;;;5091877;28;20476;-70
2021/12/23 14:46:37;;;;;;;114.25;39.42;;;2.20;99.90;;;;;;5096449;28;20042;-70
2021/12/23 14:51:31;;;;;;;135.48;38.70;;;2.20;99.90;;;;;;5100790;28;20408;-76
2021/12/23 14:54:15;;;;;;;114.25;38.35;;;2.40;99.90;;;;;;5101158;28;20047;-76
2021/12/23 14:56:45;;;;;;;117.45;39.20;;;2.20;99.90;;;;;;5086145;28;20047;-71
2021/12/23 14:59:17;;;;;;;129.77;39.10;;;2.30;99.90;;;;;;5102883;28;20107;-71
2021/12/23 15:01:46;;;;;;;124.80;38.78;;;2.30;99.90;;;;;;5101837;28;20054;-71